createdAt,value
2022-10-10T00:01:22.574Z,8.93
2022-10-10T00:03:49.329Z,15.10
2022-10-10T00:06:16.394Z,7.18
2022-10-10T00:08:43.781Z,11.07
2022-10-10T00:13:38.788Z,10.05
2022-10-10T00:16:05.856Z,14.30
2022-10-10T00:18:33.214Z,10.32
2022-10-10T00:23:26.972Z,13.05
2022-10-10T00:25:53.742Z,12.38
2022-10-10T00:28:20.556Z,14.77
2022-10-10T00:34:00.594Z,13.95
2022-10-10T00:36:27.429Z,14.52
2022-10-10T00:38:54.153Z,14.85
2022-10-10T00:41:22.178Z,13.13
2022-10-10T00:44:10.556Z,12.98
2022-10-10T00:46:37.612Z,14.75
2022-10-10T00:49:14.876Z,13.63
2022-10-10T00:51:43.552Z,13.63
2022-10-10T00:54:14.445Z,14.35
2022-10-10T00:56:47.698Z,12.73
2022-10-10T00:59:15.312Z,8.50
2022-10-10T01:01:42.451Z,16.08
2022-10-10T01:04:47.930Z,12.57
2022-10-10T01:07:25.877Z,13.50
2022-10-10T01:12:45.632Z,9.40
2022-10-10T01:15:40.290Z,14.05
2022-10-10T01:18:19.224Z,17.05
2022-10-10T01:21:13.002Z,14.40
2022-10-10T01:24:14.956Z,13.65
2022-10-10T01:27:13.604Z,15.32
2022-10-10T01:30:04.997Z,15.57
2022-10-10T01:32:39.661Z,11.13
2022-10-10T01:35:43.647Z,15.68
2022-10-10T01:38:41.311Z,11.90
2022-10-10T01:41:15.966Z,12.98
2022-10-10T01:43:43.131Z,15.05
2022-10-10T01:46:18.519Z,17.15
2022-10-10T01:48:47.983Z,13.70
2022-10-10T01:51:37.221Z,10.80
2022-10-10T01:54:24.865Z,12.98
2022-10-10T01:57:01.634Z,10.70
2022-10-10T01:59:43.724Z,11.15
2022-10-10T02:02:21.820Z,11.70
2022-10-10T02:05:31.159Z,9.88
2022-10-10T02:08:10.775Z,9.70
2022-10-10T02:10:46.604Z,15.23
2022-10-10T02:13:14.852Z,8.93
2022-10-10T02:15:48.715Z,11.75
2022-10-10T02:18:18.789Z,9.68
2022-10-10T02:20:47.161Z,10.30
2022-10-10T02:23:16.962Z,12.80
2022-10-10T02:25:47.862Z,12.75
2022-10-10T02:28:31.584Z,11.90
2022-10-10T02:31:04.481Z,14.18
2022-10-10T02:33:48.965Z,13.40
2022-10-10T02:36:17.730Z,10.48
2022-10-10T02:38:45.923Z,15.10
2022-10-10T02:41:17.713Z,13.70
2022-10-10T02:43:44.875Z,11.43
2022-10-10T02:46:14.332Z,12.35
2022-10-10T02:48:41.314Z,11.25
2022-10-10T02:51:08.525Z,14.25
2022-10-10T02:53:37.684Z,11.95
2022-10-10T02:56:29.778Z,13.15
2022-10-10T02:58:57.463Z,14.10
2022-10-10T03:01:24.934Z,12.10
2022-10-10T03:03:51.624Z,9.82
2022-10-10T03:06:18.318Z,10.85
2022-10-10T03:08:45.165Z,12.30
2022-10-10T03:11:11.857Z,12.05
2022-10-10T03:13:38.537Z,11.45
2022-10-10T03:16:06.716Z,12.52
2022-10-10T03:18:33.479Z,12.27
2022-10-10T03:21:00.164Z,9.32
2022-10-10T03:23:26.953Z,16.38
2022-10-10T03:25:53.682Z,10.00
2022-10-10T03:28:21.331Z,12.38
2022-10-10T03:30:48.844Z,12.10
2022-10-10T03:33:15.804Z,14.95
2022-10-10T03:35:42.543Z,13.15
2022-10-10T03:38:11.241Z,11.57
2022-10-10T03:40:40.847Z,11.13
2022-10-10T03:43:08.817Z,11.30
2022-10-10T03:45:35.692Z,11.10
2022-10-10T03:48:02.584Z,10.05
2022-10-10T03:50:29.534Z,9.23
2022-10-10T03:52:56.411Z,9.80
2022-10-10T03:55:23.145Z,10.20
2022-10-10T03:57:50.046Z,9.85
2022-10-10T04:00:16.866Z,9.23
2022-10-10T04:02:43.586Z,10.82
2022-10-10T04:05:10.539Z,10.10
2022-10-10T04:07:37.264Z,13.63
2022-10-10T04:10:05.478Z,14.35
2022-10-10T04:12:32.248Z,10.77
2022-10-10T04:14:58.975Z,10.02
2022-10-10T04:17:25.736Z,9.07
2022-10-10T04:19:52.438Z,12.75
2022-10-10T04:22:19.200Z,11.30
2022-10-10T04:24:45.955Z,10.73
2022-10-10T04:27:12.650Z,9.02
2022-10-10T04:29:39.382Z,13.15
2022-10-10T04:32:07.353Z,11.48
2022-10-10T04:34:34.084Z,11.50
2022-10-10T04:37:00.763Z,9.05
2022-10-10T04:39:27.568Z,13.05
2022-10-10T04:41:54.330Z,11.63
2022-10-10T04:44:21.224Z,11.57
2022-10-10T04:46:47.888Z,11.27
2022-10-10T04:49:14.635Z,11.82
2022-10-10T04:51:41.360Z,9.68
2022-10-10T04:54:08.070Z,13.27
2022-10-10T04:56:34.773Z,9.35
2022-10-10T04:59:01.541Z,11.95
2022-10-10T05:01:28.316Z,17.15
2022-10-10T05:03:55.836Z,10.68
2022-10-10T05:06:22.522Z,12.20
2022-10-10T05:08:49.187Z,16.35
2022-10-10T05:11:15.883Z,12.10
2022-10-10T05:13:42.570Z,9.82
2022-10-10T05:16:09.262Z,10.45
2022-10-10T05:18:38.968Z,16.05
2022-10-10T05:21:07.376Z,11.70
2022-10-10T05:23:35.392Z,11.68
2022-10-10T05:26:02.098Z,14.77
2022-10-10T05:28:28.854Z,13.45
2022-10-10T05:30:55.592Z,12.23
2022-10-10T05:33:22.464Z,8.57
2022-10-10T05:35:49.192Z,14.05
2022-10-10T05:38:15.925Z,11.52
2022-10-10T05:40:42.894Z,11.95
2022-10-10T05:43:09.851Z,14.98
2022-10-10T05:45:36.564Z,15.48
2022-10-10T05:48:03.308Z,14.43
2022-10-10T05:50:36.633Z,12.65
2022-10-10T05:53:03.311Z,18.58
2022-10-10T05:55:30.031Z,23.55
2022-10-10T05:57:56.833Z,30.45
2022-10-10T06:00:23.660Z,25.73
2022-10-10T06:02:50.844Z,30.63
2022-10-10T06:05:17.841Z,23.77
2022-10-10T06:08:04.618Z,32.33
2022-10-10T06:10:37.585Z,36.25
2022-10-10T06:13:04.761Z,34.28
2022-10-10T06:15:31.485Z,24.23
2022-10-10T06:17:58.188Z,12.75
2022-10-10T06:20:25.140Z,24.75
2022-10-10T06:22:52.133Z,13.63
2022-10-10T06:25:35.313Z,16.08
2022-10-10T06:28:02.463Z,9.95
2022-10-10T06:30:29.194Z,12.45
2022-10-10T06:32:57.529Z,10.52
2022-10-10T06:35:24.806Z,11.40
2022-10-10T06:37:51.664Z,17.85
2022-10-10T06:40:18.381Z,12.27
2022-10-10T06:42:45.297Z,8.48
2022-10-10T06:45:12.475Z,17.15
2022-10-10T06:47:39.824Z,11.50
2022-10-10T06:52:33.249Z,12.48
2022-10-10T06:54:59.931Z,14.15
2022-10-10T06:57:28.216Z,13.57
2022-10-10T06:59:54.886Z,15.35
2022-10-10T07:02:23.099Z,10.00
2022-10-10T07:04:49.820Z,15.57
2022-10-10T07:07:16.760Z,9.48
2022-10-10T07:09:43.461Z,11.98
2022-10-10T07:12:10.328Z,13.05
2022-10-10T07:14:37.103Z,11.35
2022-10-10T07:17:04.250Z,10.40
2022-10-10T07:19:30.922Z,9.75
2022-10-10T07:21:57.776Z,9.60
2022-10-10T07:24:24.503Z,6.85
2022-10-10T07:27:01.004Z,8.73
2022-10-10T07:29:30.527Z,7.07
2022-10-10T07:31:57.582Z,8.27
2022-10-10T07:34:24.621Z,10.23
2022-10-10T07:36:51.417Z,9.80
2022-10-10T07:39:21.822Z,10.68
2022-10-10T07:41:49.553Z,8.25
2022-10-10T07:44:16.862Z,7.78
2022-10-10T07:49:10.573Z,11.98
2022-10-10T07:51:38.990Z,10.38
2022-10-10T07:54:06.141Z,12.30
2022-10-10T07:56:33.134Z,11.57
2022-10-10T07:59:00.900Z,17.63
2022-10-10T08:01:27.711Z,17.42
2022-10-10T08:03:56.027Z,17.65
2022-10-10T08:06:22.760Z,13.20
2022-10-10T08:08:51.901Z,10.00
2022-10-10T08:11:21.248Z,7.30
2022-10-10T08:13:48.441Z,14.50
2022-10-10T08:16:16.002Z,13.60
2022-10-10T08:18:42.728Z,12.75
2022-10-10T08:21:11.910Z,8.10
2022-10-10T08:23:38.681Z,10.35
2022-10-10T08:26:07.806Z,9.93
2022-10-10T08:28:35.310Z,13.25
2022-10-10T08:31:13.373Z,10.93
2022-10-10T08:36:10.888Z,11.17
2022-10-10T08:38:38.350Z,5.88
2022-10-10T08:41:38.326Z,11.30
2022-10-10T08:44:29.245Z,9.80
2022-10-10T08:47:01.340Z,11.05
2022-10-10T08:49:32.595Z,9.07
2022-10-10T08:52:05.647Z,7.68
2022-10-10T08:54:34.383Z,8.23
2022-10-10T08:57:06.445Z,6.07
2022-10-10T08:59:38.741Z,7.97
2022-10-10T09:02:29.585Z,7.95
2022-10-10T09:05:06.630Z,8.05
2022-10-10T09:07:48.082Z,10.40
2022-10-10T09:10:31.929Z,4.15
2022-10-10T09:13:15.692Z,7.18
2022-10-10T09:16:19.420Z,7.30
2022-10-10T09:19:00.728Z,7.18
2022-10-10T09:21:37.325Z,8.13
2022-10-10T09:24:12.298Z,8.25
2022-10-10T09:26:54.759Z,8.02
2022-10-10T09:29:42.339Z,11.23
2022-10-10T09:32:14.772Z,10.35
2022-10-10T09:34:49.801Z,5.72
2022-10-10T09:37:35.490Z,8.40
2022-10-10T09:40:33.648Z,5.07
2022-10-10T09:43:20.513Z,8.95
2022-10-10T09:45:57.835Z,10.70
2022-10-10T09:48:39.299Z,6.40
2022-10-10T09:51:16.752Z,8.45
2022-10-10T09:53:45.435Z,15.63
2022-10-10T09:56:18.269Z,7.15
2022-10-10T09:58:49.857Z,6.50
2022-10-10T10:01:21.446Z,8.10
2022-10-10T10:04:27.813Z,6.40
2022-10-10T10:07:27.312Z,6.85
2022-10-10T10:10:02.713Z,5.50
2022-10-10T10:12:37.860Z,9.27
2022-10-10T10:15:15.999Z,11.27
2022-10-10T10:17:43.138Z,7.45
2022-10-10T10:20:28.671Z,6.47
2022-10-10T10:22:55.965Z,12.32
2022-10-10T10:28:10.973Z,8.93
2022-10-10T10:30:44.730Z,5.03
2022-10-10T10:33:35.683Z,9.07
2022-10-10T10:36:05.342Z,8.02
2022-10-10T10:38:59.964Z,6.47
2022-10-10T10:41:38.671Z,11.40
2022-10-10T10:44:29.629Z,11.02
2022-10-10T10:47:07.517Z,5.03
2022-10-10T10:52:16.717Z,8.45
2022-10-10T10:55:14.506Z,10.82
2022-10-10T11:01:20.349Z,6.20
2022-10-10T11:05:16.474Z,9.57
2022-10-10T11:06:59.916Z,5.72
2022-10-10T11:09:50.241Z,6.60
2022-10-10T11:12:36.672Z,8.52
2022-10-10T11:15:10.690Z,7.00
2022-10-10T11:17:45.339Z,5.22
2022-10-10T11:20:31.568Z,6.53
2022-10-10T11:23:14.434Z,8.73
2022-10-10T11:25:52.300Z,10.23
2022-10-10T11:28:40.472Z,7.22
2022-10-10T11:31:20.297Z,8.60
2022-10-10T11:33:54.339Z,8.35
2022-10-10T11:36:25.896Z,8.27
2022-10-10T11:39:00.479Z,10.77
2022-10-10T11:41:39.006Z,7.50
2022-10-10T11:44:31.270Z,8.50
2022-10-10T11:47:07.355Z,9.35
2022-10-10T11:49:55.677Z,6.35
2022-10-10T11:55:24.335Z,7.25
2022-10-10T11:58:06.036Z,13.02
2022-10-10T12:00:49.957Z,11.50
2022-10-10T12:03:16.641Z,6.45
2022-10-10T12:05:53.079Z,8.90
2022-10-10T12:08:24.979Z,5.95
2022-10-10T12:10:58.648Z,6.90
2022-10-10T12:13:32.433Z,6.75
2022-10-10T12:16:05.486Z,8.90
2022-10-10T12:18:38.256Z,9.32
2022-10-10T12:21:11.177Z,5.20
2022-10-10T12:23:38.669Z,5.82
2022-10-10T12:26:05.449Z,6.43
2022-10-10T12:28:56.951Z,6.43
2022-10-10T12:31:34.639Z,5.82
2022-10-10T12:36:40.072Z,7.40
2022-10-10T12:39:26.689Z,5.65
2022-10-10T12:41:56.144Z,6.90
2022-10-10T12:44:34.806Z,9.00
2022-10-10T12:47:16.647Z,10.75
2022-10-10T12:49:55.989Z,5.13
2022-10-10T12:52:27.373Z,5.25
2022-10-10T12:55:06.341Z,7.05
2022-10-10T12:57:38.537Z,4.90
2022-10-10T13:00:20.996Z,6.65
2022-10-10T13:03:02.794Z,5.55
2022-10-10T13:05:34.073Z,4.78
2022-10-10T13:08:04.825Z,2.45
2022-10-10T13:10:32.190Z,5.45
2022-10-10T13:13:13.130Z,9.25
2022-10-10T13:15:40.078Z,8.30
2022-10-10T13:18:06.765Z,20.98
2022-10-10T13:20:39.988Z,4.22
2022-10-10T13:23:14.030Z,3.95
2022-10-10T13:25:41.072Z,2.97
2022-10-10T13:28:19.336Z,6.65
2022-10-10T13:30:47.281Z,3.08
2022-10-10T13:33:17.748Z,7.20
2022-10-10T13:35:46.605Z,10.20
2022-10-10T13:38:15.064Z,11.43
2022-10-10T13:40:43.025Z,5.65
2022-10-10T13:43:16.038Z,8.18
2022-10-10T13:45:55.341Z,6.97
2022-10-10T13:48:34.873Z,4.93
2022-10-10T13:51:10.853Z,6.90
2022-10-10T13:53:53.761Z,10.20
2022-10-10T13:56:37.182Z,9.80
2022-10-10T13:59:13.387Z,3.70
2022-10-10T14:01:54.874Z,5.47
2022-10-10T14:04:33.253Z,7.65
2022-10-10T14:07:03.553Z,6.18
2022-10-10T14:09:39.540Z,5.57
2022-10-10T14:12:14.845Z,6.13
2022-10-10T14:14:48.783Z,3.78
2022-10-10T14:17:16.254Z,3.72
2022-10-10T14:19:44.788Z,3.35
2022-10-10T14:22:11.531Z,4.22
2022-10-10T14:24:38.313Z,6.45
2022-10-10T14:27:11.800Z,7.13
2022-10-10T14:29:39.044Z,4.07
2022-10-10T14:32:05.949Z,7.75
2022-10-10T14:34:32.611Z,9.32
2022-10-10T14:36:59.312Z,15.55
2022-10-10T14:39:25.970Z,6.57
2022-10-10T14:41:52.645Z,7.00
2022-10-10T14:44:19.334Z,4.32
2022-10-10T14:46:45.985Z,5.70
2022-10-10T14:49:20.994Z,3.63
2022-10-10T14:51:48.122Z,8.23
2022-10-10T14:57:12.428Z,5.57
2022-10-10T14:59:48.396Z,5.68
2022-10-10T15:02:21.331Z,8.55
2022-10-10T15:04:48.320Z,6.05
2022-10-10T15:07:15.946Z,8.10
2022-10-10T15:12:36.414Z,7.28
2022-10-10T15:15:03.748Z,4.03
2022-10-10T15:17:33.589Z,8.73
2022-10-10T15:20:01.079Z,6.25
2022-10-10T15:22:30.001Z,10.98
2022-10-10T15:24:56.691Z,13.38
2022-10-10T15:27:23.743Z,8.60
2022-10-10T15:29:50.481Z,9.13
2022-10-10T15:32:17.221Z,11.60
2022-10-10T15:34:43.930Z,7.80
2022-10-10T15:37:10.633Z,7.38
2022-10-10T15:39:37.865Z,8.55
2022-10-10T15:44:46.527Z,7.45
2022-10-10T15:47:14.814Z,8.50
2022-10-10T15:49:41.940Z,7.32
2022-10-10T15:54:35.979Z,6.63
2022-10-10T15:57:03.051Z,7.70
2022-10-10T15:59:29.894Z,9.15
2022-10-10T16:01:56.598Z,6.95
2022-10-10T16:04:23.525Z,9.00
2022-10-10T16:06:54.561Z,10.02
2022-10-10T16:09:35.807Z,4.03
2022-10-10T16:12:02.522Z,6.25
2022-10-10T16:14:29.581Z,4.68
2022-10-10T16:16:59.338Z,6.95
2022-10-10T16:19:26.059Z,6.80
2022-10-10T16:21:52.717Z,9.75
2022-10-10T16:24:19.456Z,12.35
2022-10-10T16:26:46.192Z,10.13
2022-10-10T16:29:13.151Z,5.82
2022-10-10T16:31:39.908Z,4.43
2022-10-10T16:34:07.414Z,10.88
2022-10-10T16:36:35.935Z,9.32
2022-10-10T16:39:03.825Z,5.78
2022-10-10T16:41:49.024Z,7.07
2022-10-10T16:44:16.958Z,3.65
2022-10-10T16:46:43.669Z,4.22
2022-10-10T16:49:12.474Z,2.47
2022-10-10T16:51:39.268Z,3.60
2022-10-10T16:54:06.383Z,3.75
2022-10-10T16:56:33.983Z,7.25
2022-10-10T16:59:01.332Z,4.90
2022-10-10T17:01:28.521Z,11.27
2022-10-10T17:06:24.250Z,3.35
2022-10-10T17:08:53.121Z,8.93
2022-10-10T17:11:21.618Z,10.90
2022-10-10T17:13:49.306Z,8.52
2022-10-10T17:16:59.965Z,3.97
2022-10-10T17:19:08.924Z,6.25
2022-10-10T17:21:35.942Z,4.25
2022-10-10T17:24:02.688Z,6.43
2022-10-10T17:26:29.648Z,10.05
2022-10-10T17:28:58.457Z,9.75
2022-10-10T17:31:26.788Z,4.03
2022-10-10T17:33:54.856Z,14.57
2022-10-10T17:36:27.128Z,8.18
2022-10-10T17:38:56.020Z,5.75
2022-10-10T17:41:23.143Z,7.65
2022-10-10T17:43:50.144Z,7.43
2022-10-10T17:46:34.198Z,7.50
2022-10-10T17:49:01.617Z,8.13
2022-10-10T17:51:28.400Z,4.25
2022-10-10T17:53:55.124Z,2.53
2022-10-10T17:56:22.575Z,8.57
2022-10-10T17:58:50.348Z,4.32
2022-10-10T18:01:18.773Z,5.25
2022-10-10T18:03:45.679Z,5.13
2022-10-10T18:06:15.168Z,5.45
2022-10-10T18:08:42.127Z,8.30
2022-10-10T18:11:14.075Z,6.63
2022-10-10T18:13:40.928Z,4.72
2022-10-10T18:16:10.278Z,8.70
2022-10-10T18:18:38.325Z,8.43
2022-10-10T18:21:07.928Z,6.85
2022-10-10T18:23:35.406Z,4.78
2022-10-10T18:26:07.767Z,5.90
2022-10-10T18:28:37.229Z,6.28
2022-10-10T18:31:18.166Z,3.67
2022-10-10T18:33:45.195Z,6.55
2022-10-10T18:36:17.469Z,6.22
2022-10-10T18:38:44.241Z,7.75
2022-10-10T18:41:14.424Z,4.68
2022-10-10T18:43:42.479Z,8.88
2022-10-10T18:46:11.817Z,8.23
2022-10-10T18:48:39.238Z,6.95
2022-10-10T18:51:09.303Z,5.03
2022-10-10T18:53:41.402Z,5.75
2022-10-10T18:56:09.047Z,8.65
2022-10-10T18:58:37.148Z,5.93
2022-10-10T19:01:09.378Z,6.00
2022-10-10T19:03:37.703Z,3.60
2022-10-10T19:06:06.348Z,2.22
2022-10-10T19:08:34.323Z,5.00
2022-10-10T19:11:01.811Z,10.85
2022-10-10T19:13:30.973Z,6.07
2022-10-10T19:16:06.599Z,9.80
2022-10-10T19:18:33.770Z,7.38
2022-10-10T19:21:02.728Z,8.30
2022-10-10T19:23:30.079Z,10.85
2022-10-10T19:26:00.715Z,7.68
2022-10-10T19:28:27.587Z,5.53
2022-10-10T19:30:54.288Z,7.00
2022-10-10T19:33:21.090Z,5.68
2022-10-10T19:35:51.272Z,4.18
2022-10-10T19:38:19.212Z,9.77
2022-10-10T19:40:46.907Z,5.45
2022-10-10T19:43:14.181Z,5.20
2022-10-10T19:48:07.921Z,4.10
2022-10-10T19:50:38.733Z,4.63
2022-10-10T19:53:06.248Z,5.03
2022-10-10T19:55:33.516Z,3.35
2022-10-10T20:00:26.893Z,7.40
2022-10-10T20:02:53.567Z,7.28
2022-10-10T20:05:20.754Z,5.68
2022-10-10T20:07:50.193Z,8.07
2022-10-10T20:10:17.826Z,5.50
2022-10-10T20:12:44.879Z,7.93
2022-10-10T20:15:12.041Z,8.55
2022-10-10T20:17:38.876Z,9.38
2022-10-10T20:20:06.224Z,6.57
2022-10-10T20:25:01.376Z,10.02
2022-10-10T20:27:31.305Z,10.95
2022-10-10T20:29:58.939Z,8.60
2022-10-10T20:32:25.660Z,7.10
2022-10-10T20:34:52.353Z,7.97
2022-10-10T20:37:19.028Z,6.28
2022-10-10T20:39:46.527Z,4.70
2022-10-10T20:42:13.287Z,5.85
2022-10-10T20:44:39.959Z,4.40
2022-10-10T20:47:06.829Z,4.43
2022-10-10T20:49:33.556Z,6.95
2022-10-10T20:52:00.253Z,6.25
2022-10-10T20:54:26.973Z,5.97
2022-10-10T21:01:18.029Z,6.93
2022-10-10T21:03:46.388Z,4.90
2022-10-10T21:06:33.294Z,3.85
2022-10-10T21:09:04.022Z,4.70
2022-10-10T21:11:30.958Z,5.80
2022-10-10T21:13:59.896Z,6.30
2022-10-10T21:16:30.313Z,5.82
2022-10-10T21:18:58.492Z,9.82
2022-10-10T21:21:27.432Z,5.07
2022-10-10T21:23:56.479Z,6.55
2022-10-10T21:26:25.337Z,7.18
2022-10-10T21:28:52.655Z,8.00
2022-10-10T21:31:22.206Z,5.32
2022-10-10T21:33:49.442Z,13.82
2022-10-10T21:36:18.528Z,6.75
2022-10-10T21:38:45.320Z,9.73
2022-10-10T21:41:16.257Z,9.27
2022-10-10T21:43:44.644Z,7.43
2022-10-10T21:46:13.828Z,9.73
2022-10-10T21:48:40.937Z,5.95
2022-10-10T21:51:07.680Z,7.20
2022-10-10T21:53:34.360Z,10.45
2022-10-10T21:56:06.280Z,9.90
2022-10-10T21:58:35.704Z,8.43
2022-10-10T22:01:16.585Z,7.10
2022-10-10T22:03:45.598Z,5.80
2022-10-10T22:06:14.825Z,8.35
2022-10-10T22:08:42.100Z,10.38
2022-10-10T22:13:37.190Z,10.07
2022-10-10T22:16:05.033Z,10.55
2022-10-10T22:18:32.417Z,8.02
2022-10-10T22:21:03.210Z,7.95
2022-10-10T22:23:30.373Z,10.00
2022-10-10T22:25:57.168Z,8.38
2022-10-10T22:28:24.202Z,8.88
2022-10-10T22:30:50.995Z,10.38
2022-10-10T22:33:17.881Z,14.57
2022-10-10T22:35:44.834Z,10.68
2022-10-10T22:38:11.785Z,8.30
2022-10-10T22:40:38.531Z,7.68
2022-10-10T22:43:05.291Z,7.93
2022-10-10T22:45:32.146Z,7.93
2022-10-10T22:47:58.845Z,6.03
2022-10-10T22:50:25.565Z,7.43
2022-10-10T22:52:52.265Z,8.00
2022-10-10T22:55:19.176Z,8.98
2022-10-10T22:57:46.073Z,5.28
2022-10-10T23:00:13.489Z,9.95
2022-10-10T23:05:07.788Z,5.68
2022-10-10T23:07:34.564Z,11.80
2022-10-10T23:10:01.299Z,8.32
2022-10-10T23:12:27.993Z,8.75
2022-10-10T23:14:54.805Z,10.32
2022-10-10T23:17:21.468Z,6.45
2022-10-10T23:19:48.351Z,8.95
2022-10-10T23:22:15.037Z,9.10
2022-10-10T23:24:41.949Z,8.75
2022-10-10T23:27:08.713Z,8.82
2022-10-10T23:29:35.415Z,10.80
2022-10-10T23:32:02.080Z,11.55
2022-10-10T23:34:28.781Z,7.45
2022-10-10T23:36:55.458Z,8.82
2022-10-10T23:39:22.412Z,6.35
2022-10-10T23:41:49.238Z,7.65
2022-10-10T23:44:15.916Z,7.10
2022-10-10T23:46:42.579Z,10.50
2022-10-10T23:49:10.157Z,6.13
2022-10-10T23:51:36.989Z,6.32
2022-10-10T23:54:03.780Z,5.93
2022-10-10T23:56:30.500Z,5.10
2022-10-10T23:58:57.310Z,9.95
